createdAt,value
2023-10-26T00:00:38.075Z,10.90
2023-10-26T00:03:04.990Z,10.90
2023-10-26T00:05:34.517Z,10.90
2023-10-26T00:08:01.475Z,10.90
2023-10-26T00:10:28.296Z,10.80
2023-10-26T00:12:55.050Z,10.80
2023-10-26T00:15:21.855Z,10.90
2023-10-26T00:17:48.747Z,10.80
2023-10-26T00:20:15.573Z,10.80
2023-10-26T00:22:42.378Z,10.80
2023-10-26T00:25:09.271Z,10.80
2023-10-26T00:27:42.153Z,10.80
2023-10-26T00:30:11.113Z,10.90
2023-10-26T00:32:38.451Z,10.80
2023-10-26T00:35:05.600Z,10.90
2023-10-26T00:37:32.516Z,10.90
2023-10-26T00:39:59.496Z,10.90
2023-10-26T00:42:26.702Z,11.00
2023-10-26T00:44:54.749Z,10.90
2023-10-26T00:47:21.929Z,10.90
2023-10-26T00:49:48.911Z,10.90
2023-10-26T00:52:15.873Z,10.90
2023-10-26T00:54:43.475Z,10.90
2023-10-26T00:57:11.215Z,10.90
2023-10-26T00:59:39.210Z,10.80
2023-10-26T01:02:06.607Z,10.80
2023-10-26T01:04:33.373Z,10.80
2023-10-26T01:07:01.001Z,10.80
2023-10-26T01:09:30.272Z,10.80
2023-10-26T01:11:57.332Z,10.80
2023-10-26T01:14:25.105Z,10.80
2023-10-26T01:16:52.038Z,10.80
2023-10-26T01:19:21.509Z,10.70
2023-10-26T01:21:52.533Z,10.70
2023-10-26T01:24:23.175Z,10.70
2023-10-26T01:26:50.072Z,10.70
2023-10-26T01:29:16.846Z,10.70
2023-10-26T01:31:43.683Z,10.70
2023-10-26T01:34:10.450Z,10.70
2023-10-26T01:36:37.288Z,10.80
2023-10-26T01:39:04.173Z,10.70
2023-10-26T01:41:36.472Z,10.70
2023-10-26T01:44:03.388Z,10.70
2023-10-26T01:46:30.143Z,10.70
2023-10-26T01:48:57.030Z,10.70
2023-10-26T01:51:28.848Z,10.80
2023-10-26T01:53:58.117Z,10.80
2023-10-26T01:56:24.904Z,10.80
2023-10-26T01:58:51.706Z,10.80
2023-10-26T02:01:18.478Z,10.80
2023-10-26T02:03:46.409Z,10.80
2023-10-26T02:06:13.306Z,10.80
2023-10-26T02:08:40.206Z,10.90
2023-10-26T02:11:07.374Z,10.90
2023-10-26T02:13:41.112Z,10.80
2023-10-26T02:16:08.244Z,10.80
2023-10-26T02:18:37.528Z,10.80
2023-10-26T02:21:04.496Z,10.80
2023-10-26T02:23:33.811Z,10.80
2023-10-26T02:26:02.445Z,10.80
2023-10-26T02:28:29.494Z,10.90
2023-10-26T02:30:56.336Z,10.90
2023-10-26T02:33:23.243Z,10.90
2023-10-26T02:35:49.970Z,10.80
2023-10-26T02:38:16.756Z,10.80
2023-10-26T02:40:46.748Z,10.80
2023-10-26T02:43:13.563Z,10.80
2023-10-26T02:45:41.835Z,10.90
2023-10-26T02:48:08.689Z,10.90
2023-10-26T02:50:36.357Z,10.80
2023-10-26T02:53:03.390Z,10.80
2023-10-26T02:55:31.186Z,10.80
2023-10-26T02:57:58.946Z,10.80
2023-10-26T03:00:25.740Z,10.80
2023-10-26T03:02:55.875Z,10.80
2023-10-26T03:05:22.790Z,10.80
2023-10-26T03:07:53.319Z,10.80
2023-10-26T03:10:23.975Z,10.80
2023-10-26T03:12:50.841Z,10.80
2023-10-26T03:15:18.146Z,10.90
2023-10-26T03:17:47.484Z,10.90
2023-10-26T03:20:19.079Z,10.90
2023-10-26T03:22:45.945Z,10.90
2023-10-26T03:25:15.050Z,10.90
2023-10-26T03:27:45.160Z,10.80
2023-10-26T03:30:14.329Z,10.80
2023-10-26T03:32:41.206Z,10.80
2023-10-26T03:35:09.753Z,10.80
2023-10-26T03:41:12.600Z,10.80
2023-10-26T03:43:39.547Z,10.80
2023-10-26T03:46:06.324Z,10.80
2023-10-26T03:48:33.608Z,10.80
2023-10-26T03:51:00.479Z,10.90
2023-10-26T03:53:27.712Z,10.90
2023-10-26T03:55:57.516Z,10.90
2023-10-26T03:58:24.449Z,10.90
2023-10-26T04:00:52.273Z,10.90
2023-10-26T04:03:19.227Z,10.90
2023-10-26T04:05:46.036Z,10.90
2023-10-26T04:08:13.425Z,10.90
2023-10-26T04:10:42.439Z,10.90
2023-10-26T04:13:09.231Z,10.90
2023-10-26T04:15:38.094Z,10.90
2023-10-26T04:18:07.002Z,11.00
2023-10-26T04:20:36.314Z,10.90
2023-10-26T04:23:04.913Z,10.90
2023-10-26T04:25:50.179Z,11.00
2023-10-26T04:28:18.609Z,10.90
2023-10-26T04:30:51.018Z,10.90
2023-10-26T04:33:20.383Z,10.90
2023-10-26T04:35:48.127Z,10.90
2023-10-26T04:38:14.942Z,10.90
2023-10-26T04:40:42.263Z,10.90
2023-10-26T04:43:10.070Z,10.90
2023-10-26T04:45:39.933Z,10.90
2023-10-26T04:48:07.011Z,10.90
2023-10-26T04:50:33.878Z,10.90
2023-10-26T04:53:01.086Z,10.90
2023-10-26T04:55:31.684Z,10.90
2023-10-26T04:57:59.060Z,10.90
2023-10-26T05:00:25.992Z,10.90
2023-10-26T05:02:55.284Z,11.00
2023-10-26T05:05:22.136Z,10.90
2023-10-26T05:07:48.880Z,11.00
2023-10-26T05:10:15.699Z,10.90
2023-10-26T05:12:47.218Z,11.00
2023-10-26T05:15:16.358Z,11.00
2023-10-26T05:17:43.270Z,10.90
2023-10-26T05:20:12.611Z,10.90
2023-10-26T05:22:41.852Z,11.00
2023-10-26T05:25:12.630Z,11.00
2023-10-26T05:27:42.002Z,11.00
2023-10-26T05:30:09.057Z,11.00
2023-10-26T05:32:35.972Z,11.00
2023-10-26T05:35:06.559Z,11.00
2023-10-26T05:37:33.339Z,11.00
2023-10-26T05:40:00.073Z,11.00
2023-10-26T05:42:26.903Z,11.00
2023-10-26T05:44:57.657Z,11.00
2023-10-26T05:47:24.808Z,11.00
2023-10-26T05:49:51.617Z,11.00
2023-10-26T05:52:18.530Z,11.00
2023-10-26T05:54:47.819Z,11.00
2023-10-26T05:57:14.718Z,11.00
2023-10-26T05:59:41.511Z,11.00
2023-10-26T06:02:08.271Z,11.00
2023-10-26T06:04:37.246Z,11.00
2023-10-26T06:07:04.222Z,11.00
2023-10-26T06:09:31.179Z,11.00
2023-10-26T06:12:44.022Z,11.00
2023-10-26T06:15:13.012Z,11.00
2023-10-26T06:17:39.813Z,11.00
2023-10-26T06:20:06.752Z,11.00
2023-10-26T06:22:33.533Z,11.10
2023-10-26T06:25:00.351Z,11.10
2023-10-26T06:27:27.242Z,11.10
2023-10-26T06:29:54.202Z,11.10
2023-10-26T06:32:21.101Z,11.10
2023-10-26T06:34:47.904Z,11.10
2023-10-26T06:37:14.724Z,11.10
2023-10-26T06:39:41.454Z,11.10
2023-10-26T06:42:10.609Z,11.10
2023-10-26T06:44:40.288Z,11.10
2023-10-26T06:47:07.117Z,11.10
2023-10-26T06:49:33.940Z,11.10
2023-10-26T06:52:00.825Z,11.10
2023-10-26T06:54:27.638Z,11.10
2023-10-26T06:56:56.298Z,11.10
2023-10-26T06:59:23.041Z,11.10
2023-10-26T07:02:08.488Z,11.10
2023-10-26T07:04:36.843Z,11.10
2023-10-26T07:07:04.050Z,11.10
2023-10-26T07:09:33.410Z,11.10
2023-10-26T07:12:00.306Z,11.10
2023-10-26T07:14:30.082Z,11.10
2023-10-26T07:16:56.838Z,11.10
2023-10-26T07:19:23.640Z,11.10
2023-10-26T07:21:50.370Z,11.10
2023-10-26T07:24:17.283Z,11.10
2023-10-26T07:26:44.105Z,11.10
2023-10-26T07:29:10.893Z,11.10
2023-10-26T07:31:40.147Z,11.10
2023-10-26T07:34:07.226Z,11.10
2023-10-26T07:36:34.104Z,11.10
2023-10-26T07:39:46.457Z,11.20
2023-10-26T07:42:07.989Z,11.20
2023-10-26T07:44:36.941Z,11.20
2023-10-26T07:47:09.651Z,11.20
2023-10-26T07:49:36.838Z,11.20
2023-10-26T07:52:03.753Z,11.20
2023-10-26T07:54:30.617Z,11.20
2023-10-26T07:56:57.420Z,11.20
2023-10-26T07:59:26.703Z,11.20
2023-10-26T08:01:56.014Z,11.20
2023-10-26T08:04:22.927Z,11.20
2023-10-26T08:06:49.726Z,11.20
2023-10-26T08:09:16.988Z,11.20
2023-10-26T08:11:48.217Z,11.20
2023-10-26T08:14:37.794Z,11.20
2023-10-26T08:17:04.495Z,11.20
2023-10-26T08:19:33.470Z,11.20
2023-10-26T08:22:02.330Z,11.20
2023-10-26T08:24:29.496Z,11.20
2023-10-26T08:26:56.313Z,11.20
2023-10-26T08:29:28.838Z,11.20
2023-10-26T08:31:56.521Z,11.20
2023-10-26T08:34:26.863Z,11.20
2023-10-26T08:37:11.841Z,11.20
2023-10-26T08:39:40.626Z,11.20
2023-10-26T08:42:10.715Z,11.30
2023-10-26T08:44:39.092Z,11.30
2023-10-26T08:47:06.432Z,11.30
2023-10-26T08:49:33.614Z,11.30
2023-10-26T08:52:00.894Z,11.30
2023-10-26T08:54:30.203Z,11.30
2023-10-26T08:56:57.030Z,11.30
2023-10-26T08:59:29.352Z,11.40
2023-10-26T09:01:56.487Z,11.40
2023-10-26T09:04:23.529Z,11.40
2023-10-26T09:06:50.760Z,11.40
2023-10-26T09:09:18.431Z,11.40
2023-10-26T09:11:47.756Z,11.40
2023-10-26T09:14:18.753Z,11.50
2023-10-26T09:16:46.661Z,11.50
2023-10-26T09:19:17.523Z,11.50
2023-10-26T09:21:51.855Z,11.50
2023-10-26T09:24:27.852Z,11.50
2023-10-26T09:26:58.129Z,11.50
2023-10-26T09:29:37.824Z,11.50
2023-10-26T09:32:08.074Z,11.50
2023-10-26T09:34:42.316Z,11.50
2023-10-26T09:37:10.759Z,11.60
2023-10-26T09:39:38.373Z,11.50
2023-10-26T09:42:12.068Z,11.50
2023-10-26T09:44:39.777Z,11.60
2023-10-26T09:47:09.510Z,11.60
2023-10-26T09:49:38.907Z,11.60
2023-10-26T09:52:05.814Z,11.60
2023-10-26T09:54:37.029Z,11.60
2023-10-26T09:57:17.888Z,11.50
2023-10-26T09:59:47.037Z,11.60
2023-10-26T10:02:17.444Z,11.60
2023-10-26T10:04:45.071Z,11.60
2023-10-26T10:07:18.835Z,11.60
2023-10-26T10:10:04.536Z,11.60
2023-10-26T10:12:31.453Z,11.60
2023-10-26T10:15:15.601Z,11.60
2023-10-26T10:17:50.273Z,11.60
2023-10-26T10:20:19.155Z,11.60
2023-10-26T10:22:46.748Z,11.70
2023-10-26T10:25:14.089Z,11.70
2023-10-26T10:28:03.598Z,11.70
2023-10-26T10:30:31.104Z,11.70
2023-10-26T10:33:01.318Z,11.70
2023-10-26T10:35:32.773Z,11.70
2023-10-26T10:38:15.072Z,11.70
2023-10-26T10:40:42.270Z,11.70
2023-10-26T10:43:11.157Z,11.70
2023-10-26T10:45:38.166Z,11.70
2023-10-26T10:48:08.292Z,11.70
2023-10-26T10:50:35.212Z,11.70
2023-10-26T10:53:02.043Z,11.70
2023-10-26T10:55:29.763Z,11.80
2023-10-26T10:57:59.674Z,11.80
2023-10-26T11:00:42.842Z,11.80
2023-10-26T11:03:09.927Z,11.80
2023-10-26T11:05:37.455Z,11.80
2023-10-26T11:08:07.966Z,11.80
2023-10-26T11:10:35.209Z,11.80
2023-10-26T11:13:02.354Z,11.80
2023-10-26T11:15:34.785Z,11.80
2023-10-26T11:18:02.056Z,11.80
2023-10-26T11:20:37.868Z,11.80
2023-10-26T11:23:08.389Z,11.80
2023-10-26T11:25:35.266Z,11.80
2023-10-26T11:28:02.798Z,11.80
2023-10-26T11:30:45.485Z,11.80
2023-10-26T11:33:29.326Z,11.80
2023-10-26T11:35:58.522Z,11.80
2023-10-26T11:38:25.433Z,11.80
2023-10-26T11:40:52.272Z,11.80
2023-10-26T11:43:30.921Z,11.80
2023-10-26T11:45:57.773Z,11.70
2023-10-26T11:48:28.360Z,11.70
2023-10-26T11:50:57.485Z,11.80
2023-10-26T11:53:27.594Z,11.70
2023-10-26T11:55:54.436Z,11.70
2023-10-26T11:58:23.676Z,11.70
2023-10-26T12:00:50.495Z,11.70
2023-10-26T12:03:19.909Z,11.80
2023-10-26T12:05:46.675Z,11.70
2023-10-26T12:08:15.702Z,11.70
2023-10-26T12:10:42.598Z,11.70
2023-10-26T12:13:09.427Z,11.70
2023-10-26T12:15:37.812Z,11.80
2023-10-26T12:18:05.166Z,11.80
2023-10-26T12:20:32.166Z,11.80
2023-10-26T12:22:58.920Z,11.80
2023-10-26T12:25:28.092Z,11.80
2023-10-26T12:28:21.480Z,11.80
2023-10-26T12:30:42.277Z,11.80
2023-10-26T12:33:10.264Z,11.80
2023-10-26T12:35:37.115Z,11.80
2023-10-26T12:38:03.919Z,11.80
2023-10-26T12:40:33.145Z,11.80
2023-10-26T12:42:59.906Z,11.80
2023-10-26T12:45:26.848Z,11.80
2023-10-26T12:47:56.852Z,11.90
2023-10-26T12:50:23.818Z,11.90
2023-10-26T12:52:53.233Z,11.90
2023-10-26T12:55:22.040Z,11.90
2023-10-26T12:57:48.932Z,11.90
2023-10-26T13:00:15.956Z,11.90
2023-10-26T13:02:46.347Z,11.90
2023-10-26T13:05:13.197Z,11.90
2023-10-26T13:07:42.442Z,11.90
2023-10-26T13:10:11.345Z,12.00
2023-10-26T13:12:40.067Z,11.90
2023-10-26T13:15:07.098Z,11.90
2023-10-26T13:17:36.355Z,11.90
2023-10-26T13:20:05.172Z,11.90
2023-10-26T13:22:34.824Z,11.90
2023-10-26T13:25:01.643Z,11.90
2023-10-26T13:27:30.733Z,11.90
2023-10-26T13:29:57.784Z,11.90
2023-10-26T13:32:24.583Z,11.90
2023-10-26T13:34:51.435Z,11.90
2023-10-26T13:37:20.300Z,11.90
2023-10-26T13:39:49.354Z,11.90
2023-10-26T13:42:16.155Z,11.90
2023-10-26T13:44:44.699Z,11.90
2023-10-26T13:47:12.010Z,11.90
2023-10-26T13:49:38.816Z,11.90
2023-10-26T13:52:09.546Z,11.90
2023-10-26T13:54:36.480Z,11.90
2023-10-26T13:57:03.530Z,12.00
2023-10-26T13:59:35.300Z,11.90
2023-10-26T14:02:04.584Z,11.90
2023-10-26T14:04:41.563Z,11.90
2023-10-26T14:07:10.862Z,11.90
2023-10-26T14:09:37.812Z,12.00
2023-10-26T14:12:04.660Z,12.00
2023-10-26T14:14:34.700Z,12.00
2023-10-26T14:17:04.738Z,12.00
2023-10-26T14:19:31.779Z,12.00
2023-10-26T14:21:58.616Z,11.90
2023-10-26T14:24:25.504Z,12.00
2023-10-26T14:26:52.407Z,12.00
2023-10-26T14:29:19.226Z,11.90
2023-10-26T14:31:46.019Z,11.90
2023-10-26T14:34:12.854Z,12.00
2023-10-26T14:36:39.735Z,11.90
2023-10-26T14:39:09.177Z,11.90
2023-10-26T14:41:35.921Z,11.90
2023-10-26T14:44:02.741Z,12.00
2023-10-26T14:46:33.115Z,11.90
2023-10-26T14:49:01.084Z,11.90
2023-10-26T14:51:27.855Z,11.90
2023-10-26T14:53:54.877Z,11.90
2023-10-26T14:56:21.618Z,11.90
2023-10-26T14:58:48.971Z,11.90
2023-10-26T15:01:15.864Z,11.90
2023-10-26T15:03:46.034Z,11.90
2023-10-26T15:06:14.948Z,11.80
2023-10-26T15:08:41.725Z,11.80
2023-10-26T15:11:22.608Z,11.80
2023-10-26T15:13:53.726Z,11.80
2023-10-26T15:16:23.608Z,11.80
2023-10-26T15:18:52.328Z,11.80
2023-10-26T15:21:19.137Z,11.90
2023-10-26T15:23:45.902Z,11.80
2023-10-26T15:26:12.717Z,11.80
2023-10-26T15:28:39.809Z,11.90
2023-10-26T15:31:06.749Z,11.90
2023-10-26T15:33:35.979Z,11.90
2023-10-26T15:36:04.548Z,11.90
2023-10-26T15:38:31.595Z,11.80
2023-10-26T15:41:02.136Z,11.80
2023-10-26T15:43:31.629Z,11.80
2023-10-26T15:45:58.604Z,11.80
2023-10-26T15:49:30.607Z,11.80
2023-10-26T15:51:15.211Z,11.80
2023-10-26T15:53:44.398Z,11.80
2023-10-26T15:56:11.866Z,11.80
2023-10-26T15:58:39.008Z,11.80
2023-10-26T16:01:05.885Z,11.80
2023-10-26T16:03:35.886Z,11.80
2023-10-26T16:06:03.963Z,11.80
2023-10-26T16:08:31.155Z,11.80
2023-10-26T16:11:02.033Z,11.80
2023-10-26T16:13:32.290Z,11.80
2023-10-26T16:15:59.302Z,11.80
2023-10-26T16:18:26.195Z,11.70
2023-10-26T16:20:53.045Z,11.70
2023-10-26T16:23:19.880Z,11.70
2023-10-26T16:25:46.931Z,11.70
2023-10-26T16:28:16.257Z,11.70
2023-10-26T16:30:43.352Z,11.60
2023-10-26T16:33:10.549Z,11.60
2023-10-26T16:35:40.786Z,11.60
2023-10-26T16:38:07.878Z,11.60
2023-10-26T16:40:34.886Z,11.60
2023-10-26T16:43:02.060Z,11.60
2023-10-26T16:45:29.414Z,11.60
2023-10-26T16:47:56.575Z,11.60
2023-10-26T16:50:23.685Z,11.50
2023-10-26T16:52:50.673Z,11.50
2023-10-26T16:55:17.624Z,11.50
2023-10-26T16:57:44.461Z,11.50
2023-10-26T17:00:13.985Z,11.50
2023-10-26T17:02:40.962Z,11.60
2023-10-26T17:05:09.458Z,11.60
2023-10-26T17:07:38.593Z,11.60
2023-10-26T17:10:06.307Z,11.60
2023-10-26T17:12:33.392Z,11.60
2023-10-26T17:15:00.224Z,11.60
2023-10-26T17:17:27.373Z,11.60
2023-10-26T17:19:56.482Z,11.60
2023-10-26T17:22:23.369Z,11.60
2023-10-26T17:24:52.529Z,11.60
2023-10-26T17:27:19.252Z,11.50
2023-10-26T17:29:47.129Z,11.50
2023-10-26T17:32:14.567Z,11.50
2023-10-26T17:34:41.397Z,11.50
2023-10-26T17:37:08.431Z,11.50
2023-10-26T17:39:35.354Z,11.50
2023-10-26T17:42:02.157Z,11.50
2023-10-26T17:44:29.961Z,11.50
2023-10-26T17:46:56.877Z,11.50
2023-10-26T17:49:24.088Z,11.50
2023-10-26T17:51:50.913Z,11.50
2023-10-26T17:54:17.827Z,11.50
2023-10-26T17:56:44.602Z,11.50
2023-10-26T17:59:12.000Z,11.50
2023-10-26T18:01:39.541Z,11.50
2023-10-26T18:04:06.440Z,11.50
2023-10-26T18:06:35.836Z,11.50
2023-10-26T18:09:02.701Z,11.50
2023-10-26T18:11:32.087Z,11.50
2023-10-26T18:13:59.143Z,11.50
2023-10-26T18:16:27.551Z,11.50
2023-10-26T18:18:54.545Z,11.50
2023-10-26T18:21:21.375Z,11.50
2023-10-26T18:23:48.309Z,11.50
2023-10-26T18:26:15.247Z,11.50
2023-10-26T18:28:45.295Z,11.50
2023-10-26T18:31:13.269Z,11.50
2023-10-26T18:33:41.115Z,11.50
2023-10-26T18:36:10.432Z,11.50
2023-10-26T18:38:41.312Z,11.50
2023-10-26T18:41:17.329Z,11.50
2023-10-26T18:43:45.043Z,11.50
2023-10-26T18:46:12.182Z,11.50
2023-10-26T18:48:39.831Z,11.50
2023-10-26T18:51:07.418Z,11.50
2023-10-26T18:53:36.837Z,11.50
2023-10-26T18:56:12.207Z,11.50
2023-10-26T18:58:41.444Z,11.50
2023-10-26T19:01:10.890Z,11.50
2023-10-26T19:03:49.769Z,11.50
2023-10-26T19:06:24.637Z,11.50
2023-10-26T19:08:53.564Z,11.50
2023-10-26T19:11:22.426Z,11.50
2023-10-26T19:13:49.999Z,11.50
2023-10-26T19:16:17.603Z,11.50
2023-10-26T19:18:49.530Z,11.40
2023-10-26T19:21:18.802Z,11.40
2023-10-26T19:23:46.079Z,11.40
2023-10-26T19:26:12.835Z,11.40
2023-10-26T19:28:39.753Z,11.40
2023-10-26T19:31:09.767Z,11.40
2023-10-26T19:33:39.021Z,11.40
2023-10-26T19:36:08.216Z,11.40
2023-10-26T19:38:35.016Z,11.40
2023-10-26T19:41:04.201Z,11.40
2023-10-26T19:43:33.384Z,11.30
2023-10-26T19:46:00.202Z,11.30
2023-10-26T19:48:29.383Z,11.30
2023-10-26T19:50:56.235Z,11.30
2023-10-26T19:53:23.096Z,11.30
2023-10-26T19:55:54.252Z,11.30
2023-10-26T19:58:23.439Z,11.30
2023-10-26T20:00:52.871Z,11.30
2023-10-26T20:03:19.753Z,11.30
2023-10-26T20:05:46.563Z,11.30
2023-10-26T20:08:13.293Z,11.30
2023-10-26T20:10:43.070Z,11.30
2023-10-26T20:13:09.845Z,11.40
2023-10-26T20:15:38.769Z,11.30
2023-10-26T20:18:08.548Z,11.30
2023-10-26T20:20:37.722Z,11.30
2023-10-26T20:23:04.477Z,11.30
2023-10-26T20:25:31.317Z,11.30
2023-10-26T20:28:00.722Z,11.30
2023-10-26T20:30:27.604Z,11.30
2023-10-26T20:32:54.498Z,11.30
2023-10-26T20:35:21.303Z,11.30
2023-10-26T20:37:48.090Z,11.30
2023-10-26T20:40:17.799Z,11.30
2023-10-26T20:42:47.258Z,11.30
2023-10-26T20:45:14.114Z,11.30
2023-10-26T20:47:41.026Z,11.30
2023-10-26T20:50:08.080Z,11.30
2023-10-26T20:52:37.023Z,11.30
2023-10-26T20:55:04.203Z,11.30
2023-10-26T20:57:31.012Z,11.30
2023-10-26T20:59:59.921Z,11.30
2023-10-26T21:02:26.654Z,11.30
2023-10-26T21:04:58.023Z,11.30
2023-10-26T21:07:25.063Z,11.30
2023-10-26T21:09:52.071Z,11.20
2023-10-26T21:12:18.854Z,11.20
2023-10-26T21:14:48.962Z,11.20
2023-10-26T21:17:18.065Z,11.20
2023-10-26T21:19:44.920Z,11.20
2023-10-26T21:22:11.876Z,11.20
2023-10-26T21:24:38.769Z,11.20
2023-10-26T21:27:05.514Z,11.20
2023-10-26T21:29:34.564Z,11.20
2023-10-26T21:32:01.506Z,11.20
2023-10-26T21:34:28.338Z,11.20
2023-10-26T21:36:57.365Z,11.20
2023-10-26T21:39:24.241Z,11.20
2023-10-26T21:41:53.481Z,11.10
2023-10-26T21:44:20.223Z,11.20
2023-10-26T21:46:49.106Z,11.10
2023-10-26T21:49:21.580Z,11.10
2023-10-26T21:51:50.729Z,11.10
2023-10-26T21:54:17.520Z,11.20
2023-10-26T21:56:44.399Z,11.20
2023-10-26T21:59:18.459Z,11.10
2023-10-26T22:01:45.395Z,11.10
2023-10-26T22:04:22.071Z,11.10
2023-10-26T22:06:53.966Z,11.10
2023-10-26T22:09:24.515Z,11.10
2023-10-26T22:11:52.399Z,11.20
2023-10-26T22:14:21.380Z,11.20
2023-10-26T22:16:48.190Z,11.20
2023-10-26T22:19:14.989Z,11.20
2023-10-26T22:21:41.792Z,11.20
2023-10-26T22:24:08.784Z,11.20
2023-10-26T22:26:35.564Z,11.20
2023-10-26T22:29:02.445Z,11.20
2023-10-26T22:31:30.013Z,11.20
2023-10-26T22:33:56.800Z,11.20
2023-10-26T22:36:23.543Z,11.20
2023-10-26T22:38:50.276Z,11.20
2023-10-26T22:41:17.068Z,11.20
2023-10-26T22:43:43.773Z,11.20
2023-10-26T22:46:10.566Z,11.10
2023-10-26T22:48:37.390Z,11.10
2023-10-26T22:51:04.345Z,11.10
2023-10-26T22:53:31.067Z,11.10
2023-10-26T22:55:57.839Z,11.10
2023-10-26T22:58:27.113Z,11.10
2023-10-26T23:00:56.563Z,11.00
2023-10-26T23:03:25.577Z,11.10
2023-10-26T23:05:57.168Z,11.10
2023-10-26T23:08:28.119Z,11.10
2023-10-26T23:10:54.950Z,11.10
2023-10-26T23:13:21.742Z,11.10
2023-10-26T23:15:48.714Z,11.20
2023-10-26T23:18:15.587Z,11.20
2023-10-26T23:20:42.358Z,11.20
2023-10-26T23:23:09.255Z,11.20
2023-10-26T23:25:42.742Z,11.10
2023-10-26T23:28:09.626Z,11.10
2023-10-26T23:30:36.661Z,11.10
2023-10-26T23:33:03.726Z,11.10
2023-10-26T23:35:32.116Z,11.10
2023-10-26T23:37:59.160Z,11.20
2023-10-26T23:40:32.048Z,11.20
2023-10-26T23:43:01.554Z,11.20
2023-10-26T23:45:29.229Z,11.10
2023-10-26T23:47:56.000Z,11.10
2023-10-26T23:50:25.180Z,11.00
2023-10-26T23:52:51.952Z,11.10
2023-10-26T23:55:18.767Z,11.10
2023-10-26T23:57:45.592Z,11.10
